Time;durP1;ratioP1;P1;durP2;ratioP2;P2;SDS_P1;SDS_P2;PMS_P1;PMS_P2;Temp;Humidity;BMP_temperature;BMP_pressure;BME280_temperature;BME280_humidity;BME280_pressure;Samples;Min_cycle;Max_cycle;Signal;HPM_P1;HPM_P2
2021/01/24 00:01:29;;;;;;;15.55;11.77;;;;;;;7.06;67.24;98512.53;4904597;28;97941;-74
2021/01/24 00:03:56;;;;;;;14.32;12.18;;;;;;;6.89;68.67;98520.53;4902993;28;98363;-73
2021/01/24 00:06:23;;;;;;;16.38;12.25;;;;;;;6.90;68.48;98517.84;4903067;28;98713;-73
2021/01/24 00:08:49;;;;;;;17.05;13.95;;;;;;;6.97;68.11;98529.47;4901572;28;99709;-73
2021/01/24 00:11:15;;;;;;;13.77;12.30;;;;;;;6.95;68.64;98533.09;4903542;28;97240;-74
2021/01/24 00:13:42;;;;;;;12.18;10.93;;;;;;;6.95;68.64;98513.19;4899531;28;98722;-73
2021/01/24 00:16:08;;;;;;;15.48;11.20;;;;;;;6.91;68.71;98518.66;4904531;28;98320;-74
2021/01/24 00:18:35;;;;;;;12.63;11.25;;;;;;;6.97;68.70;98510.50;4900075;28;97795;-74
2021/01/24 00:21:01;;;;;;;10.82;9.73;;;;;;;7.12;67.58;98512.13;4902238;28;96783;-74
2021/01/24 00:23:28;;;;;;;13.60;12.07;;;;;;;7.16;67.70;98508.41;4902133;28;98553;-74
2021/01/24 00:25:54;;;;;;;11.65;10.10;;;;;;;7.14;67.63;98519.78;4916365;28;100173;-74
2021/01/24 00:28:21;;;;;;;12.15;10.27;;;;;;;7.18;67.28;98526.44;4945810;28;96530;-74
2021/01/24 00:30:49;;;;;;;12.90;11.10;;;;;;;7.21;67.37;98524.50;4939015;28;99690;-74
2021/01/24 00:33:15;;;;;;;14.00;10.88;;;;;;;7.24;67.01;98521.69;4941688;28;99449;-73
2021/01/24 00:35:42;;;;;;;13.60;11.73;;;;;;;7.23;67.64;98530.41;4942514;28;98613;-73
2021/01/24 00:38:09;;;;;;;15.73;11.98;;;;;;;7.18;67.38;98523.88;4941724;28;99615;-74
2021/01/24 00:40:38;;;;;;;13.90;12.25;;;;;;;7.21;67.40;98527.09;4940928;28;96869;-73
2021/01/24 00:43:04;;;;;;;12.77;11.57;;;;;;;7.05;68.08;98529.00;4919226;28;98610;-73
2021/01/24 00:45:31;;;;;;;16.15;10.90;;;;;;;7.02;68.32;98524.00;4938853;28;98530;-72
2021/01/24 00:47:57;;;;;;;13.20;11.70;;;;;;;6.92;68.69;98528.91;4940161;28;97985;-73
2021/01/24 00:50:24;;;;;;;10.85;9.75;;;;;;;7.03;67.91;98523.91;4941269;28;97902;-72
2021/01/24 00:52:50;;;;;;;10.57;9.48;;;;;;;7.07;67.85;98516.75;4926371;28;100360;-73
2021/01/24 00:55:17;;;;;;;13.93;10.43;;;;;;;7.01;68.42;98533.53;4924950;28;101409;-72
2021/01/24 00:57:43;;;;;;;13.02;10.00;;;;;;;6.95;68.93;98533.09;4945089;28;99099;-72
2021/01/24 01:00:10;;;;;;;11.35;10.15;;;;;;;7.06;67.79;98523.72;4944648;28;97723;-71
2021/01/24 01:02:37;;;;;;;15.60;11.23;;;;;;;7.03;68.06;98523.06;4944615;28;98389;-71
2021/01/24 01:05:05;;;;;;;11.43;10.30;;;;;;;7.02;67.73;98524.00;4943487;28;98484;-71
2021/01/24 01:07:32;;;;;;;12.02;9.48;;;;;;;6.87;68.36;98533.59;4945759;28;96941;-72
2021/01/24 01:09:59;;;;;;;11.77;10.55;;;;;;;6.87;68.43;98524.94;4942752;28;97080;-73
2021/01/24 01:12:25;;;;;;;13.98;12.48;;;;;;;6.79;68.52;98522.84;4942678;28;98644;-73
2021/01/24 01:14:51;;;;;;;12.23;10.77;;;;;;;6.69;68.77;98530.34;4942823;28;98426;-72
2021/01/24 01:17:18;;;;;;;13.45;12.05;;;;;;;6.66;69.16;98530.56;4942179;28;97133;-72
2021/01/24 01:19:44;;;;;;;11.70;10.50;;;;;;;6.81;68.23;98533.94;4941201;28;96693;-72
2021/01/24 01:22:11;;;;;;;13.10;11.32;;;;;;;6.83;67.83;98532.94;4942958;28;98603;-72
2021/01/24 01:24:37;;;;;;;12.43;10.82;;;;;;;6.74;68.43;98528.31;4939889;28;98439;-71
2021/01/24 01:27:03;;;;;;;14.80;10.77;;;;;;;6.80;68.08;98522.75;4940730;28;97228;-72
2021/01/24 01:29:30;;;;;;;12.80;10.73;;;;;;;6.72;68.31;98519.81;4944664;28;97501;-74
2021/01/24 01:31:56;;;;;;;12.73;10.18;;;;;;;6.67;68.82;98515.84;4942641;28;97529;-74
2021/01/24 01:34:23;;;;;;;12.10;10.70;;;;;;;6.60;68.91;98514.53;4943290;28;100057;-74
2021/01/24 01:36:49;;;;;;;15.25;11.25;;;;;;;6.72;68.54;98509.47;4944994;28;96735;-73
2021/01/24 01:39:16;;;;;;;14.52;12.00;;;;;;;6.74;68.39;98511.94;4943266;28;96802;-74
2021/01/24 01:41:42;;;;;;;14.38;10.77;;;;;;;6.67;68.41;98510.66;4942201;28;98626;-73
2021/01/24 01:44:08;;;;;;;13.43;10.57;;;;;;;6.64;68.44;98511.66;4944771;28;98652;-74
2021/01/24 01:46:35;;;;;;;11.85;9.55;;;;;;;6.60;68.37;98510.19;4944554;28;97047;-74
2021/01/24 01:49:02;;;;;;;11.70;8.43;;;;;;;6.46;68.22;98502.44;4924251;28;97655;-73
2021/01/24 01:51:29;;;;;;;11.55;10.35;;;;;;;6.50;68.29;98514.28;4940090;28;98622;-74
2021/01/24 01:53:56;;;;;;;14.73;12.07;;;;;;;6.56;67.54;98506.16;4937662;28;98515;-73
2021/01/24 01:56:22;;;;;;;12.05;10.73;;;;;;;6.62;67.87;98498.00;4941449;28;96644;-74
2021/01/24 01:58:48;;;;;;;11.30;9.88;;;;;;;6.52;68.38;98492.53;4940851;28;97206;-74
2021/01/24 02:01:33;;;;;;;10.93;9.43;;;;;;;6.46;68.49;98481.75;4942368;28;96651;-73
2021/01/24 02:04:08;;;;;;;14.43;10.35;;;;;;;6.57;67.83;98476.75;4926728;28;99211;-73
2021/01/24 02:06:38;;;;;;;11.85;9.30;;;;;;;6.55;67.40;98486.34;4923937;28;96975;-74
2021/01/24 02:09:18;;;;;;;8.88;7.97;;;;;;;6.47;68.09;98468.69;4911160;28;97477;-73
2021/01/24 02:12:27;;;;;;;11.02;9.18;;;;;;;6.43;68.14;98476.75;4946302;28;99109;-74
2021/01/24 02:15:07;;;;;;;9.30;8.32;;;;;;;6.35;68.21;98484.16;4912612;28;98606;-74
2021/01/24 02:17:39;;;;;;;8.50;7.32;;;;;;;6.43;67.81;98481.91;4943148;28;97192;-74
2021/01/24 02:20:15;;;;;;;9.00;8.10;;;;;;;6.24;68.55;98483.06;4910354;28;99041;-73
2021/01/24 02:22:41;;;;;;;11.02;8.50;;;;;;;6.37;67.87;98487.47;4929188;28;98930;-74
2021/01/24 02:25:35;;;;;;;10.02;9.02;;;;;;;6.33;68.57;98486.00;4909796;28;98555;-74
2021/01/24 02:28:45;;;;;;;11.85;9.70;;;;;;;6.30;68.78;98487.03;4931462;28;98045;-72
2021/01/24 02:31:13;;;;;;;8.75;7.95;;;;;;;6.36;68.56;98493.59;4922820;28;96925;-73
2021/01/24 02:33:39;;;;;;;12.18;10.98;;;;;;;6.33;68.36;98494.59;4943516;28;98819;-72
2021/01/24 02:36:06;;;;;;;10.90;9.27;;;;;;;6.48;68.66;98498.00;4923150;28;99895;-73
2021/01/24 02:38:34;;;;;;;10.40;9.50;;;;;;;6.39;68.10;98496.81;4921970;28;98067;-73
2021/01/24 02:41:00;;;;;;;10.10;9.05;;;;;;;6.28;68.53;98492.28;4926423;28;97742;-72
2021/01/24 02:43:27;;;;;;;11.55;10.48;;;;;;;6.18;69.15;98478.25;4941379;28;98506;-72
2021/01/24 02:45:53;;;;;;;10.85;9.85;;;;;;;6.14;69.39;98484.53;4925782;28;98695;-72
2021/01/24 02:48:19;;;;;;;9.90;8.65;;;;;;;6.23;68.97;98486.56;4930071;28;97633;-72
2021/01/24 02:50:46;;;;;;;10.27;9.38;;;;;;;6.38;68.06;98494.31;4947954;28;97448;-72
2021/01/24 02:53:13;;;;;;;12.20;9.45;;;;;;;6.18;68.57;98483.44;4944354;28;100687;-72
2021/01/24 02:55:39;;;;;;;14.45;11.65;;;;;;;6.08;69.55;98487.47;4920343;28;98519;-72
2021/01/24 02:58:06;;;;;;;16.20;11.77;;;;;;;6.15;68.65;98488.78;4941480;28;98246;-74
2021/01/24 03:00:32;;;;;;;13.18;11.77;;;;;;;6.22;68.79;98487.47;4942156;28;97749;-74
2021/01/24 03:02:58;;;;;;;11.37;10.17;;;;;;;6.03;69.62;98505.03;4939411;28;98062;-73
2021/01/24 03:05:25;;;;;;;11.80;10.30;;;;;;;6.02;70.02;98509.38;4941687;28;98677;-72
2021/01/24 03:07:52;;;;;;;12.32;10.90;;;;;;;6.01;70.40;98507.69;4943576;28;99068;-73
2021/01/24 03:10:18;;;;;;;13.65;12.13;;;;;;;5.94;71.46;98510.72;4908273;28;96731;-70
2021/01/24 03:13:07;;;;;;;18.08;14.07;;;;;;;5.91;71.93;98510.88;4908398;28;99129;-72
2021/01/24 03:15:34;;;;;;;34.35;17.95;;;;;;;6.08;70.95;98509.94;4945272;28;98886;-72
2021/01/24 03:18:00;;;;;;;90.00;32.38;;;;;;;5.92;71.99;98508.25;4910512;28;97689;-72
2021/01/24 03:20:27;;;;;;;54.85;27.55;;;;;;;6.09;71.88;98511.59;4921127;28;96860;-72
2021/01/24 03:22:53;;;;;;;80.45;34.80;;;;;;;6.16;71.67;98511.13;4924929;28;98417;-73
2021/01/24 03:25:20;;;;;;;118.93;31.85;;;;;;;6.05;71.96;98513.50;4924907;28;98470;-73
2021/01/24 03:27:47;;;;;;;76.85;25.48;;;;;;;6.04;71.98;98509.28;4922240;28;98323;-73
2021/01/24 03:30:14;;;;;;;49.47;19.90;;;;;;;5.92;71.83;98507.41;4923916;28;97964;-73
2021/01/24 03:32:41;;;;;;;22.30;15.35;;;;;;;5.93;71.28;98507.31;4942249;28;98361;-73
2021/01/24 03:35:07;;;;;;;25.63;15.65;;;;;;;5.77;71.69;98528.03;4921964;28;98107;-73
2021/01/24 03:37:34;;;;;;;25.63;14.73;;;;;;;5.57;72.38;98536.09;4939460;28;98036;-74
2021/01/24 03:40:01;;;;;;;40.08;20.35;;;;;;;5.68;72.07;98536.31;4941431;28;98927;-74
2021/01/24 03:42:28;;;;;;;41.38;21.40;;;;;;;5.84;71.88;98541.44;4939560;28;98532;-74
2021/01/24 03:44:55;;;;;;;56.92;23.52;;;;;;;5.60;72.94;98548.84;4940208;28;99232;-74
2021/01/24 03:47:21;;;;;;;44.55;22.20;;;;;;;5.64;73.15;98549.50;4943941;28;98366;-74
2021/01/24 03:49:48;;;;;;;95.70;24.75;;;;;;;5.51;73.60;98542.44;4928496;28;96827;-74
2021/01/24 03:52:14;;;;;;;87.47;25.15;;;;;;;5.72;73.88;98542.97;4937121;28;98607;-74
2021/01/24 03:54:40;;;;;;;58.22;24.25;;;;;;;5.72;74.31;98534.38;4938941;28;98693;-74
2021/01/24 03:57:09;;;;;;;86.10;25.27;;;;;;;5.64;74.48;98539.97;4942111;28;97404;-74
2021/01/24 03:59:35;;;;;;;42.40;23.02;;;;;;;5.60;74.28;98532.50;4943149;28;97584;-74
2021/01/24 04:02:02;;;;;;;48.10;18.02;;;;;;;5.56;73.01;98537.00;4938070;28;98474;-74
2021/01/24 04:04:30;;;;;;;31.90;17.58;;;;;;;5.68;72.96;98546.66;4940911;28;98498;-74
2021/01/24 04:06:56;;;;;;;44.17;17.17;;;;;;;5.66;73.46;98547.66;4940711;28;99391;-74
2021/01/24 04:09:22;;;;;;;49.25;19.08;;;;;;;5.76;72.50;98541.88;4940146;28;97193;-74
2021/01/24 04:11:49;;;;;;;83.43;23.60;;;;;;;5.53;73.42;98543.16;4939765;28;98641;-74
2021/01/24 04:14:15;;;;;;;71.97;23.67;;;;;;;5.42;74.32;98544.69;4940142;28;100599;-74
2021/01/24 04:16:41;;;;;;;60.78;26.23;;;;;;;5.62;74.72;98551.34;4938384;28;97326;-74
2021/01/24 04:19:08;;;;;;;71.38;26.08;;;;;;;5.65;74.00;98546.00;4937500;28;96745;-74
2021/01/24 04:21:34;;;;;;;72.47;26.35;;;;;;;5.57;74.35;98543.00;4942852;28;98491;-74
2021/01/24 04:24:00;;;;;;;60.90;22.70;;;;;;;5.53;74.28;98542.34;4943770;28;97507;-73
2021/01/24 04:26:27;;;;;;;72.05;22.45;;;;;;;5.61;74.08;98545.34;4940010;28;97615;-74
2021/01/24 04:28:53;;;;;;;59.03;20.08;;;;;;;5.39;74.33;98544.88;4940598;28;98071;-74
2021/01/24 04:31:20;;;;;;;83.28;20.65;;;;;;;5.30;74.85;98550.56;4942128;28;98638;-73
2021/01/24 04:33:46;;;;;;;45.15;18.35;;;;;;;5.34;74.56;98552.91;4944503;28;98654;-73
2021/01/24 04:36:12;;;;;;;48.00;17.65;;;;;;;5.50;74.27;98553.69;4942307;28;97154;-73
2021/01/24 04:38:39;;;;;;;67.72;18.40;;;;;;;5.44;73.98;98558.38;4940811;28;97698;-74
2021/01/24 04:41:06;;;;;;;93.22;18.08;;;;;;;5.60;73.65;98558.38;4941523;28;98705;-73
2021/01/24 04:43:33;;;;;;;36.65;15.70;;;;;;;5.58;73.90;98561.00;4929868;28;98868;-73
2021/01/24 04:45:59;;;;;;;73.55;16.48;;;;;;;5.47;74.09;98560.78;4929614;28;97657;-73
2021/01/24 04:48:26;;;;;;;35.97;15.98;;;;;;;5.50;74.02;98560.63;4946188;28;97708;-73
2021/01/24 04:50:52;;;;;;;32.15;16.40;;;;;;;5.50;74.30;98561.47;4946352;28;98480;-73
2021/01/24 04:53:18;;;;;;;25.85;13.52;;;;;;;5.60;73.91;98561.78;4942029;28;98572;-73
2021/01/24 04:55:45;;;;;;;37.45;15.90;;;;;;;5.62;73.64;98557.34;4941028;28;96798;-73
2021/01/24 04:58:11;;;;;;;37.30;17.58;;;;;;;5.71;73.54;98562.00;4928439;28;97625;-73
2021/01/24 05:00:37;;;;;;;37.10;15.18;;;;;;;5.68;73.04;98559.56;4943067;28;98940;-73
2021/01/24 05:03:04;;;;;;;28.50;15.63;;;;;;;5.65;73.60;98553.78;4944623;28;98665;-72
2021/01/24 05:05:31;;;;;;;20.52;13.95;;;;;;;5.78;72.80;98552.13;4927881;28;97237;-71
2021/01/24 05:07:58;;;;;;;26.45;12.65;;;;;;;5.64;73.23;98549.50;4940959;28;98503;-72
2021/01/24 05:10:30;;;;;;;19.20;14.13;;;;;;;5.62;72.81;98539.25;4943212;28;98537;-72
2021/01/24 05:12:57;;;;;;;31.23;15.00;;;;;;;5.63;72.22;98527.97;4941997;28;98506;-71
2021/01/24 05:15:26;;;;;;;18.70;15.32;;;;;;;5.72;72.26;98524.88;4943641;28;97750;-72
2021/01/24 05:17:57;;;;;;;21.33;13.88;;;;;;;5.69;72.41;98522.44;4942841;28;96639;-72
2021/01/24 05:20:31;;;;;;;15.10;13.35;;;;;;;5.60;72.91;98524.75;4939395;28;99157;-72
2021/01/24 05:23:01;;;;;;;13.27;11.88;;;;;;;5.65;72.51;98528.75;4943684;28;99327;-72
2021/01/24 05:25:31;;;;;;;12.50;11.20;;;;;;;5.69;71.63;98522.44;4939362;28;97878;-72
2021/01/24 05:28:15;;;;;;;16.08;13.25;;;;;;;5.82;72.12;98521.78;4945697;28;97420;-72
2021/01/24 05:30:42;;;;;;;17.70;13.98;;;;;;;5.56;72.47;98520.69;4940822;28;101719;-72
2021/01/24 05:33:08;;;;;;;17.13;13.88;;;;;;;5.35;73.84;98523.53;4943515;28;99082;-72
2021/01/24 05:35:44;;;;;;;16.52;14.38;;;;;;;5.46;73.48;98521.19;4943011;28;96678;-72
2021/01/24 05:38:15;;;;;;;15.38;13.80;;;;;;;5.41;73.73;98522.38;4928518;28;98992;-72
2021/01/24 05:40:41;;;;;;;14.90;13.32;;;;;;;5.53;73.24;98532.84;4929229;28;98941;-72
2021/01/24 05:43:08;;;;;;;16.63;13.40;;;;;;;5.46;74.25;98535.88;4943724;28;98826;-72
2021/01/24 05:45:36;;;;;;;16.40;13.73;;;;;;;5.57;73.83;98533.50;4944523;28;97275;-72
2021/01/24 05:48:05;;;;;;;16.90;14.93;;;;;;;5.71;73.25;98514.63;4941548;28;97317;-72
2021/01/24 05:50:34;;;;;;;18.30;13.27;;;;;;;5.68;73.98;98504.47;4927451;28;97783;-72
2021/01/24 05:53:03;;;;;;;18.52;15.57;;;;;;;5.93;72.60;98501.31;4942883;28;98548;-72
2021/01/24 05:55:34;;;;;;;17.40;14.85;;;;;;;5.94;72.19;98501.22;4945480;28;97306;-72
2021/01/24 05:58:21;;;;;;;18.95;13.52;;;;;;;5.93;72.32;98501.31;4946290;28;97244;-72
2021/01/24 06:00:48;;;;;;;21.33;15.80;;;;;;;5.70;73.72;98508.63;4943480;28;97581;-72
2021/01/24 06:03:15;;;;;;;24.13;16.45;;;;;;;5.77;73.37;98506.53;4924095;28;98451;-72
2021/01/24 06:05:41;;;;;;;21.20;17.02;;;;;;;5.94;72.62;98506.38;4943664;28;97604;-72
2021/01/24 06:08:09;;;;;;;21.75;16.73;;;;;;;6.04;71.51;98510.09;4923738;28;97329;-72
2021/01/24 06:10:35;;;;;;;23.80;20.13;;;;;;;6.09;71.34;98519.34;4945564;28;101088;-72
2021/01/24 06:13:02;;;;;;;24.30;17.58;;;;;;;5.76;72.74;98523.78;4944428;28;98675;-72
2021/01/24 06:15:29;;;;;;;22.02;17.00;;;;;;;5.69;73.00;98522.44;4945665;28;98608;-71
2021/01/24 06:17:57;;;;;;;26.77;18.73;;;;;;;5.69;72.86;98522.44;4946673;28;96860;-72
2021/01/24 06:20:32;;;;;;;22.08;17.95;;;;;;;5.75;73.21;98519.53;4942665;28;98439;-72
2021/01/24 06:23:09;;;;;;;19.38;15.88;;;;;;;5.76;73.12;98522.97;4945854;28;97443;-72
2021/01/24 06:25:40;;;;;;;13.82;12.38;;;;;;;5.39;72.85;98519.06;4909803;28;97056;-73
2021/01/24 06:28:11;;;;;;;15.88;14.18;;;;;;;5.59;72.72;98518.72;4923216;28;96784;-72
2021/01/24 06:30:37;;;;;;;16.33;14.35;;;;;;;5.61;72.71;98511.75;4898469;28;98498;-72
2021/01/24 06:33:16;;;;;;;13.43;11.90;;;;;;;5.55;73.74;98503.50;4921572;28;98415;-72
2021/01/24 06:35:47;;;;;;;20.75;16.42;;;;;;;5.71;73.10;98502.53;4905460;28;97630;-72
2021/01/24 06:38:35;;;;;;;19.65;15.98;;;;;;;5.73;72.50;98502.44;4904997;28;97120;-72
2021/01/24 06:41:11;;;;;;;20.50;16.45;;;;;;;5.64;73.76;98513.31;4902518;28;98556;-72
2021/01/24 06:43:45;;;;;;;21.25;18.27;;;;;;;5.61;73.22;98514.31;4906255;28;98619;-72
2021/01/24 06:46:21;;;;;;;24.50;19.33;;;;;;;5.58;73.64;98506.72;4900307;28;97486;-72
2021/01/24 06:48:48;;;;;;;21.75;17.25;;;;;;;5.69;74.13;98513.88;4903531;28;96840;-72
2021/01/24 06:51:32;;;;;;;27.23;20.13;;;;;;;5.68;72.95;98518.22;4906151;28;98586;-74
2021/01/24 06:54:02;;;;;;;24.08;20.33;;;;;;;5.66;73.57;98538.16;4919752;28;98560;-73
2021/01/24 06:56:42;;;;;;;24.33;19.38;;;;;;;5.66;73.74;98535.56;4901882;28;96783;-73
2021/01/24 06:59:09;;;;;;;21.60;19.08;;;;;;;5.67;74.01;98526.91;4903309;28;97381;-73
2021/01/24 07:01:42;;;;;;;24.08;17.85;;;;;;;5.66;73.51;98522.66;4899788;28;98602;-70
2021/01/24 07:04:19;;;;;;;22.67;20.25;;;;;;;5.72;73.96;98526.63;4902288;28;98471;-70
2021/01/24 07:07:11;;;;;;;20.92;18.50;;;;;;;5.73;73.07;98529.13;4909712;28;96545;-70
2021/01/24 07:09:41;;;;;;;24.05;20.05;;;;;;;5.61;74.27;98558.28;4909398;28;96786;-69
2021/01/24 07:12:08;;;;;;;22.13;18.20;;;;;;;5.80;73.49;98560.63;4910953;28;98640;-71
2021/01/24 07:14:35;;;;;;;24.65;18.58;;;;;;;5.58;73.53;98561.00;4910825;28;98563;-70
2021/01/24 07:17:07;;;;;;;20.02;15.80;;;;;;;5.57;73.87;98568.88;4911869;28;96573;-70
2021/01/24 07:19:35;;;;;;;20.40;17.23;;;;;;;5.43;73.56;98578.22;4910629;28;97823;-69
2021/01/24 07:22:01;;;;;;;18.95;16.23;;;;;;;5.53;73.71;98573.34;4911671;28;98636;-69
2021/01/24 07:24:27;;;;;;;18.02;16.05;;;;;;;5.64;73.41;98575.34;4911080;28;98494;-70
2021/01/24 07:26:54;;;;;;;18.20;16.33;;;;;;;5.82;72.89;98583.81;4941106;28;97100;-69
2021/01/24 07:29:27;;;;;;;17.60;15.40;;;;;;;5.89;73.13;98585.13;4950579;28;96676;-72
2021/01/24 07:31:54;;;;;;;19.08;16.73;;;;;;;5.86;73.35;98590.47;4929207;28;98664;-64
2021/01/24 07:34:21;;;;;;;16.85;15.00;;;;;;;5.88;72.96;98580.88;4932014;28;98631;-71
2021/01/24 07:36:48;;;;;;;16.02;13.77;;;;;;;5.97;73.13;98585.56;4948862;28;96608;-71
2021/01/24 07:39:14;;;;;;;17.02;15.25;;;;;;;5.88;73.20;98586.06;4930179;28;97956;-65
2021/01/24 07:41:42;;;;;;;17.88;14.73;;;;;;;5.90;73.13;98569.53;4949010;28;98819;-70
2021/01/24 07:44:08;;;;;;;14.25;12.75;;;;;;;5.99;73.56;98569.03;4945625;28;98495;-73
2021/01/24 07:46:34;;;;;;;16.73;14.85;;;;;;;5.94;73.52;98581.41;4948197;28;96644;-66
2021/01/24 07:49:01;;;;;;;18.25;16.10;;;;;;;5.76;74.28;98579.84;4949418;28;97071;-61
2021/01/24 07:51:27;;;;;;;18.13;16.20;;;;;;;5.82;74.37;98568.31;4949773;28;98477;-69
2021/01/24 07:53:54;;;;;;;20.92;16.33;;;;;;;5.89;73.88;98554.09;4950125;28;98780;-65
2021/01/24 07:56:20;;;;;;;24.52;21.88;;;;;;;5.97;73.95;98570.06;4910907;28;97121;-65
2021/01/24 07:58:47;;;;;;;25.70;19.88;;;;;;;5.93;73.54;98565.97;4931032;28;96750;-67
2021/01/24 08:01:13;;;;;;;25.77;21.00;;;;;;;5.97;73.15;98570.06;4949332;28;98606;-67
2021/01/24 08:03:42;;;;;;;27.27;23.08;;;;;;;5.92;73.55;98556.56;4948607;28;98390;-66
2021/01/24 08:06:09;;;;;;;27.80;23.23;;;;;;;5.99;74.03;98566.44;4950168;28;96689;-66
2021/01/24 08:08:39;;;;;;;30.33;25.40;;;;;;;5.86;73.43;98596.50;4948323;28;96688;-67
2021/01/24 08:11:06;;;;;;;25.38;20.50;;;;;;;5.79;73.35;98598.56;4950604;28;98448;-67
2021/01/24 08:13:33;;;;;;;17.20;14.98;;;;;;;5.81;73.10;98603.69;4950288;28;98474;-69
2021/01/24 08:16:00;;;;;;;14.90;13.43;;;;;;;5.87;72.55;98605.91;4917461;28;97133;-67
2021/01/24 08:18:27;;;;;;;15.02;13.52;;;;;;;5.77;73.30;98602.19;4916879;28;97122;-66
2021/01/24 08:20:54;;;;;;;14.63;13.23;;;;;;;5.86;72.71;98616.31;4908134;28;98503;-66
2021/01/24 08:23:22;;;;;;;12.77;11.48;;;;;;;5.93;72.41;98622.88;4928316;28;98656;-65
2021/01/24 08:25:48;;;;;;;13.70;12.35;;;;;;;5.89;72.98;98623.94;4946847;28;98360;-66
2021/01/24 08:28:15;;;;;;;13.02;11.75;;;;;;;5.87;72.48;98633.53;4946312;28;97271;-65
2021/01/24 08:30:43;;;;;;;12.15;11.00;;;;;;;5.86;72.40;98634.44;4930455;28;98674;-66
2021/01/24 08:33:13;;;;;;;10.88;9.88;;;;;;;5.97;72.18;98629.53;4947838;28;98528;-66
2021/01/24 08:35:39;;;;;;;11.10;10.10;;;;;;;5.99;72.19;98643.22;4948826;28;96556;-66
2021/01/24 08:38:05;;;;;;;11.25;10.32;;;;;;;5.89;72.55;98649.78;4949204;28;98292;-66
2021/01/24 08:40:33;;;;;;;10.50;9.57;;;;;;;5.89;73.06;98647.19;4949651;28;98463;-66
2021/01/24 08:42:59;;;;;;;12.63;11.43;;;;;;;5.90;72.83;98651.44;4947943;28;98700;-65
2021/01/24 08:45:28;;;;;;;10.82;9.82;;;;;;;5.82;73.78;98641.53;4931987;28;96642;-66
2021/01/24 08:48:01;;;;;;;11.13;10.13;;;;;;;5.72;74.11;98650.72;4948902;28;96648;-65
2021/01/24 08:50:37;;;;;;;11.77;10.68;;;;;;;5.94;72.79;98645.22;4948376;28;98198;-72
2021/01/24 08:53:05;;;;;;;11.80;10.70;;;;;;;6.00;73.38;98637.94;4947779;28;98627;-77
2021/01/24 08:55:48;;;;;;;13.10;11.73;;;;;;;6.01;72.82;98657.72;4950046;28;97057;-70
2021/01/24 08:58:27;;;;;;;16.95;15.15;;;;;;;5.89;73.13;98657.53;4928349;28;96694;-73
2021/01/24 09:01:06;;;;;;;17.60;15.77;;;;;;;6.02;73.30;98653.41;4947993;28;98477;-66
2021/01/24 09:03:33;;;;;;;18.25;15.98;;;;;;;5.88;73.56;98650.72;4947519;28;98662;-68
2021/01/24 09:06:20;;;;;;;17.25;14.65;;;;;;;5.94;73.49;98645.22;4951150;28;96600;-67
2021/01/24 09:08:49;;;;;;;22.27;16.45;;;;;;;5.98;73.66;98647.56;4921953;28;96679;-69
2021/01/24 09:11:15;;;;;;;19.95;15.73;;;;;;;6.00;73.77;98650.03;4949224;28;98462;-67
2021/01/24 09:13:41;;;;;;;22.35;18.25;;;;;;;6.12;73.43;98658.84;4946571;28;98472;-70
2021/01/24 09:16:08;;;;;;;25.52;20.42;;;;;;;5.97;73.80;98666.59;4950159;28;96677;-66
2021/01/24 09:18:34;;;;;;;28.20;20.58;;;;;;;6.12;73.62;98667.44;4951339;28;97718;-67
2021/01/24 09:21:06;;;;;;;25.90;20.05;;;;;;;6.11;73.17;98673.53;4951525;28;98875;-69
2021/01/24 09:23:32;;;;;;;25.33;20.42;;;;;;;6.12;73.95;98664.84;4946220;28;98550;-62
2021/01/24 09:26:02;;;;;;;31.02;21.95;;;;;;;6.24;73.20;98664.19;4946555;28;96521;-64
2021/01/24 09:28:28;;;;;;;25.40;20.25;;;;;;;6.22;73.56;98675.53;4943785;28;96596;-68
2021/01/24 09:30:54;;;;;;;28.40;22.77;;;;;;;6.21;73.32;98674.69;4948072;28;98492;-66
2021/01/24 09:33:21;;;;;;;34.85;24.23;;;;;;;6.11;73.81;98670.97;4945627;28;97481;-65
2021/01/24 09:35:47;;;;;;;31.77;22.77;;;;;;;6.14;73.81;98673.38;4949263;28;96559;-68
2021/01/24 09:38:13;;;;;;;30.65;21.67;;;;;;;6.17;73.61;98678.38;4950127;28;96612;-67
2021/01/24 09:40:40;;;;;;;27.27;21.70;;;;;;;6.23;73.83;98675.47;4949461;28;98481;-68
2021/01/24 09:43:06;;;;;;;28.92;21.98;;;;;;;6.17;73.71;98682.72;4950863;28;98446;-68
2021/01/24 09:45:34;;;;;;;28.08;22.60;;;;;;;6.18;73.82;98684.38;4952270;28;96578;-68
2021/01/24 09:48:00;;;;;;;26.98;21.48;;;;;;;6.20;74.16;98683.38;4934680;28;97769;-67
2021/01/24 09:50:27;;;;;;;29.75;21.80;;;;;;;6.25;73.80;98698.66;4930130;28;98644;-67
2021/01/24 09:52:53;;;;;;;27.67;19.98;;;;;;;6.21;74.31;98695.41;4945650;28;98432;-66
2021/01/24 09:55:19;;;;;;;25.92;19.98;;;;;;;6.35;73.55;98691.19;4946847;28;96712;-66
2021/01/24 09:57:45;;;;;;;27.98;21.85;;;;;;;6.14;74.56;98708.78;4946169;28;96825;-66
2021/01/24 10:00:12;;;;;;;28.27;21.80;;;;;;;6.30;74.11;98705.22;4950093;28;98771;-66
2021/01/24 10:02:39;;;;;;;30.52;24.23;;;;;;;6.28;74.27;98712.25;4952866;28;98661;-66
2021/01/24 10:05:06;;;;;;;30.92;23.33;;;;;;;6.40;74.54;98715.06;4951680;28;97144;-67
2021/01/24 10:07:33;;;;;;;29.10;23.15;;;;;;;6.42;74.29;98713.22;4952093;28;96682;-66
2021/01/24 10:09:59;;;;;;;31.90;22.77;;;;;;;6.35;74.90;98722.25;4951843;28;97399;-67
2021/01/24 10:12:26;;;;;;;29.05;22.92;;;;;;;6.37;74.76;98730.75;4952225;28;98537;-65
2021/01/24 10:14:52;;;;;;;32.03;23.83;;;;;;;6.39;74.67;98729.75;4952117;28;97664;-66
2021/01/24 10:17:18;;;;;;;31.15;22.58;;;;;;;6.49;74.30;98733.47;4933953;28;96678;-64
2021/01/24 10:19:45;;;;;;;32.08;22.60;;;;;;;6.39;74.86;98734.06;4951436;28;98561;-66
2021/01/24 10:22:11;;;;;;;29.63;21.25;;;;;;;6.48;74.95;98734.38;4951123;28;98492;-66
2021/01/24 10:24:37;;;;;;;31.52;22.85;;;;;;;6.45;74.79;98744.09;4929723;28;96694;-61
2021/01/24 10:27:04;;;;;;;31.33;25.08;;;;;;;6.45;74.81;98741.53;4942913;28;97120;-67
2021/01/24 10:29:47;;;;;;;30.13;22.23;;;;;;;6.45;74.85;98736.34;4944335;28;98511;-68
2021/01/24 10:32:13;;;;;;;26.80;20.25;;;;;;;6.53;74.61;98737.56;4929016;28;98566;-64
2021/01/24 10:34:57;;;;;;;31.65;24.65;;;;;;;6.46;74.70;98741.44;4948180;28;96720;-67
2021/01/24 10:37:24;;;;;;;30.65;23.88;;;;;;;6.57;73.96;98743.41;4950305;28;96662;-66
2021/01/24 10:39:50;;;;;;;33.55;23.35;;;;;;;6.47;74.55;98742.25;4951027;28;97629;-67
2021/01/24 10:42:16;;;;;;;35.13;25.15;;;;;;;6.44;75.27;98747.59;4946597;28;98475;-66
2021/01/24 10:44:43;;;;;;;33.05;23.25;;;;;;;6.57;74.23;98751.16;4948840;28;96601;-67
2021/01/24 10:47:09;;;;;;;35.83;25.55;;;;;;;6.42;74.43;98749.44;4950512;28;96660;-67
2021/01/24 10:49:36;;;;;;;31.35;23.88;;;;;;;6.50;74.69;98747.28;4949226;28;98831;-67
2021/01/24 10:52:02;;;;;;;29.30;22.05;;;;;;;6.52;74.25;98760.94;4951155;28;97472;-66
2021/01/24 10:54:28;;;;;;;33.15;24.08;;;;;;;6.39;75.09;98754.78;4947748;28;96556;-66
2021/01/24 10:56:55;;;;;;;35.67;23.90;;;;;;;6.50;74.50;98752.44;4934797;28;96595;-67
2021/01/24 10:59:21;;;;;;;35.40;24.15;;;;;;;6.38;75.17;98758.31;4951974;28;98606;-67
2021/01/24 11:01:47;;;;;;;40.83;25.63;;;;;;;6.44;75.28;98757.94;4951566;28;98714;-66
2021/01/24 11:04:14;;;;;;;31.63;23.50;;;;;;;6.48;75.47;98762.03;4933659;28;96778;-66
2021/01/24 11:06:40;;;;;;;35.88;25.02;;;;;;;6.33;75.81;98770.66;4951872;28;96832;-65
2021/01/24 11:09:07;;;;;;;34.97;23.40;;;;;;;6.40;75.59;98769.41;4951082;28;98474;-67
2021/01/24 11:11:33;;;;;;;32.05;25.83;;;;;;;6.57;74.94;98774.47;4950940;28;98606;-68
2021/01/24 11:13:59;;;;;;;32.30;21.42;;;;;;;6.58;74.96;98770.94;4951782;28;96569;-68
2021/01/24 11:16:26;;;;;;;31.65;24.10;;;;;;;6.57;75.18;98771.88;4934613;28;96762;-67
2021/01/24 11:18:52;;;;;;;28.90;21.35;;;;;;;6.54;75.37;98775.47;4950908;28;97574;-66
2021/01/24 11:21:19;;;;;;;32.08;23.15;;;;;;;6.57;74.88;98779.66;4951139;28;98608;-67
2021/01/24 11:23:45;;;;;;;33.28;23.00;;;;;;;6.42;74.92;98778.75;4951985;28;96654;-69
2021/01/24 11:26:11;;;;;;;33.65;23.45;;;;;;;6.55;75.30;98786.66;4950571;28;96964;-68
2021/01/24 11:28:38;;;;;;;30.55;22.00;;;;;;;6.46;75.06;98787.19;4951706;28;98626;-68
2021/01/24 11:31:04;;;;;;;31.83;22.02;;;;;;;6.46;75.77;98782.84;4951077;28;98530;-70
2021/01/24 11:33:31;;;;;;;31.52;20.77;;;;;;;6.52;74.82;98786.84;4951378;28;97141;-67